sensor_id;sensor_type;location;lat;lon;timestamp;P1;durP1;ratioP1;P2;durP2;ratioP2
62024;SDS011;47978;49.118;12.146;2023-07-02T00:03:55;2.30;;;1.60;;
62024;SDS011;47978;49.118;12.146;2023-07-02T00:07:57;2.85;;;1.70;;
62024;SDS011;47978;49.118;12.146;2023-07-02T00:12:00;2.28;;;1.50;;
62024;SDS011;47978;49.118;12.146;2023-07-02T00:16:01;2.13;;;1.60;;
62024;SDS011;47978;49.118;12.146;2023-07-02T00:20:03;2.40;;;1.65;;
62024;SDS011;47978;49.118;12.146;2023-07-02T00:24:05;2.53;;;1.93;;
62024;SDS011;47978;49.118;12.146;2023-07-02T00:28:08;1.90;;;1.70;;
62024;SDS011;47978;49.118;12.146;2023-07-02T00:32:10;3.00;;;1.63;;
62024;SDS011;47978;49.118;12.146;2023-07-02T00:36:12;2.38;;;1.65;;
62024;SDS011;47978;49.118;12.146;2023-07-02T00:40:14;4.30;;;1.60;;
62024;SDS011;47978;49.118;12.146;2023-07-02T00:44:17;2.75;;;1.60;;
62024;SDS011;47978;49.118;12.146;2023-07-02T00:48:18;2.13;;;1.60;;
62024;SDS011;47978;49.118;12.146;2023-07-02T00:52:20;3.00;;;1.58;;
62024;SDS011;47978;49.118;12.146;2023-07-02T00:56:22;2.28;;;1.58;;
62024;SDS011;47978;49.118;12.146;2023-07-02T01:00:25;2.10;;;1.57;;
62024;SDS011;47978;49.118;12.146;2023-07-02T01:04:27;3.85;;;2.05;;
62024;SDS011;47978;49.118;12.146;2023-07-02T01:08:29;2.30;;;1.75;;
62024;SDS011;47978;49.118;12.146;2023-07-02T01:12:30;2.75;;;1.70;;
62024;SDS011;47978;49.118;12.146;2023-07-02T01:16:34;5.13;;;1.98;;
62024;SDS011;47978;49.118;12.146;2023-07-02T01:20:38;3.83;;;1.70;;
62024;SDS011;47978;49.118;12.146;2023-07-02T01:24:41;2.90;;;2.08;;
62024;SDS011;47978;49.118;12.146;2023-07-02T01:28:42;3.15;;;2.20;;
62024;SDS011;47978;49.118;12.146;2023-07-02T01:32:44;4.28;;;2.17;;
62024;SDS011;47978;49.118;12.146;2023-07-02T01:36:47;3.22;;;1.83;;
62024;SDS011;47978;49.118;12.146;2023-07-02T01:40:48;3.50;;;2.50;;
62024;SDS011;47978;49.118;12.146;2023-07-02T01:44:50;3.90;;;2.35;;
62024;SDS011;47978;49.118;12.146;2023-07-02T01:48:52;4.05;;;2.10;;
62024;SDS011;47978;49.118;12.146;2023-07-02T01:52:55;3.25;;;2.20;;
62024;SDS011;47978;49.118;12.146;2023-07-02T01:56:57;3.78;;;2.10;;
62024;SDS011;47978;49.118;12.146;2023-07-02T02:00:58;3.75;;;1.98;;
62024;SDS011;47978;49.118;12.146;2023-07-02T02:05:00;3.17;;;2.08;;
62024;SDS011;47978;49.118;12.146;2023-07-02T02:09:03;6.47;;;2.42;;
62024;SDS011;47978;49.118;12.146;2023-07-02T02:13:05;3.60;;;2.42;;
62024;SDS011;47978;49.118;12.146;2023-07-02T02:17:07;3.95;;;2.72;;
62024;SDS011;47978;49.118;12.146;2023-07-02T02:21:08;3.08;;;2.33;;
62024;SDS011;47978;49.118;12.146;2023-07-02T02:25:11;3.50;;;2.70;;
62024;SDS011;47978;49.118;12.146;2023-07-02T02:29:13;4.38;;;2.78;;
62024;SDS011;47978;49.118;12.146;2023-07-02T02:33:14;3.38;;;2.58;;
62024;SDS011;47978;49.118;12.146;2023-07-02T02:37:16;6.20;;;2.38;;
62024;SDS011;47978;49.118;12.146;2023-07-02T02:41:19;4.55;;;2.83;;
62024;SDS011;47978;49.118;12.146;2023-07-02T02:45:20;7.43;;;2.70;;
62024;SDS011;47978;49.118;12.146;2023-07-02T02:49:22;4.82;;;2.97;;
62024;SDS011;47978;49.118;12.146;2023-07-02T02:53:23;7.70;;;2.50;;
62024;SDS011;47978;49.118;12.146;2023-07-02T02:57:26;4.65;;;2.60;;
62024;SDS011;47978;49.118;12.146;2023-07-02T03:01:28;3.88;;;2.53;;
62024;SDS011;47978;49.118;12.146;2023-07-02T03:05:29;4.22;;;2.63;;
62024;SDS011;47978;49.118;12.146;2023-07-02T03:09:31;3.40;;;2.50;;
62024;SDS011;47978;49.118;12.146;2023-07-02T03:13:34;5.10;;;3.03;;
62024;SDS011;47978;49.118;12.146;2023-07-02T03:21:37;4.43;;;2.70;;
62024;SDS011;47978;49.118;12.146;2023-07-02T03:25:39;6.47;;;3.03;;
62024;SDS011;47978;49.118;12.146;2023-07-02T03:29:41;4.57;;;3.15;;
62024;SDS011;47978;49.118;12.146;2023-07-02T03:33:43;4.22;;;2.70;;
62024;SDS011;47978;49.118;12.146;2023-07-02T03:37:45;4.03;;;2.83;;
62024;SDS011;47978;49.118;12.146;2023-07-02T03:41:46;6.57;;;2.85;;
62024;SDS011;47978;49.118;12.146;2023-07-02T03:45:49;5.53;;;3.17;;
62024;SDS011;47978;49.118;12.146;2023-07-02T03:49:51;4.90;;;3.03;;
62024;SDS011;47978;49.118;12.146;2023-07-02T03:53:52;4.78;;;3.08;;
62024;SDS011;47978;49.118;12.146;2023-07-02T03:57:54;5.00;;;2.83;;
62024;SDS011;47978;49.118;12.146;2023-07-02T04:01:57;5.35;;;3.42;;
62024;SDS011;47978;49.118;12.146;2023-07-02T04:10:00;3.92;;;2.90;;
62024;SDS011;47978;49.118;12.146;2023-07-02T04:14:01;6.43;;;3.17;;
62024;SDS011;47978;49.118;12.146;2023-07-02T04:18:04;5.30;;;2.95;;
62024;SDS011;47978;49.118;12.146;2023-07-02T04:22:06;4.03;;;3.20;;
62024;SDS011;47978;49.118;12.146;2023-07-02T04:26:07;6.05;;;3.20;;
62024;SDS011;47978;49.118;12.146;2023-07-02T04:30:29;6.95;;;3.15;;
62024;SDS011;47978;49.118;12.146;2023-07-02T04:34:32;5.95;;;3.10;;
62024;SDS011;47978;49.118;12.146;2023-07-02T04:38:33;4.35;;;3.40;;
62024;SDS011;47978;49.118;12.146;2023-07-02T04:42:35;6.18;;;3.05;;
62024;SDS011;47978;49.118;12.146;2023-07-02T04:46:37;5.10;;;3.17;;
62024;SDS011;47978;49.118;12.146;2023-07-02T04:50:41;5.18;;;3.13;;
62024;SDS011;47978;49.118;12.146;2023-07-02T04:54:43;5.18;;;3.58;;
62024;SDS011;47978;49.118;12.146;2023-07-02T04:58:44;7.97;;;3.15;;
62024;SDS011;47978;49.118;12.146;2023-07-02T05:02:46;3.42;;;2.28;;
62024;SDS011;47978;49.118;12.146;2023-07-02T05:06:49;6.13;;;2.92;;
62024;SDS011;47978;49.118;12.146;2023-07-02T05:14:52;5.10;;;2.70;;
62024;SDS011;47978;49.118;12.146;2023-07-02T05:18:54;4.78;;;3.20;;
62024;SDS011;47978;49.118;12.146;2023-07-02T05:22:57;5.75;;;3.08;;
62024;SDS011;47978;49.118;12.146;2023-07-02T05:31:00;4.97;;;2.90;;
62024;SDS011;47978;49.118;12.146;2023-07-02T05:35:01;8.65;;;2.90;;
62024;SDS011;47978;49.118;12.146;2023-07-02T05:39:05;3.72;;;2.75;;
62024;SDS011;47978;49.118;12.146;2023-07-02T05:43:06;3.70;;;2.60;;
62024;SDS011;47978;49.118;12.146;2023-07-02T05:47:08;3.65;;;2.65;;
62024;SDS011;47978;49.118;12.146;2023-07-02T05:51:10;4.10;;;2.53;;
62024;SDS011;47978;49.118;12.146;2023-07-02T05:55:13;8.32;;;3.90;;
62024;SDS011;47978;49.118;12.146;2023-07-02T06:03:16;4.93;;;2.83;;
62024;SDS011;47978;49.118;12.146;2023-07-02T06:07:18;5.13;;;3.05;;
62024;SDS011;47978;49.118;12.146;2023-07-02T06:11:21;4.75;;;3.05;;
62024;SDS011;47978;49.118;12.146;2023-07-02T06:19:24;5.47;;;3.10;;
62024;SDS011;47978;49.118;12.146;2023-07-02T06:23:25;8.30;;;2.90;;
62024;SDS011;47978;49.118;12.146;2023-07-02T06:27:28;7.25;;;3.30;;
62024;SDS011;47978;49.118;12.146;2023-07-02T06:35:31;4.82;;;3.25;;
62024;SDS011;47978;49.118;12.146;2023-07-02T06:39:33;5.78;;;3.03;;
62024;SDS011;47978;49.118;12.146;2023-07-02T06:43:36;8.00;;;3.40;;
62024;SDS011;47978;49.118;12.146;2023-07-02T06:51:39;6.20;;;3.80;;
62024;SDS011;47978;49.118;12.146;2023-07-02T06:55:40;7.82;;;3.83;;
62024;SDS011;47978;49.118;12.146;2023-07-02T06:59:43;9.75;;;3.78;;
62024;SDS011;47978;49.118;12.146;2023-07-02T07:07:46;7.25;;;3.78;;
62024;SDS011;47978;49.118;12.146;2023-07-02T07:11:48;6.97;;;3.20;;
62024;SDS011;47978;49.118;12.146;2023-07-02T07:15:51;8.18;;;4.00;;
62024;SDS011;47978;49.118;12.146;2023-07-02T07:19:53;6.97;;;3.50;;
62024;SDS011;47978;49.118;12.146;2023-07-02T07:23:54;9.80;;;3.97;;
62024;SDS011;47978;49.118;12.146;2023-07-02T07:27:56;7.10;;;3.50;;
62024;SDS011;47978;49.118;12.146;2023-07-02T07:36:02;5.35;;;3.42;;
62024;SDS011;47978;49.118;12.146;2023-07-02T07:40:04;11.48;;;5.00;;
62024;SDS011;47978;49.118;12.146;2023-07-02T07:44:06;11.65;;;4.85;;
62024;SDS011;47978;49.118;12.146;2023-07-02T07:48:09;16.88;;;6.75;;
62024;SDS011;47978;49.118;12.146;2023-07-02T07:56:12;11.43;;;6.53;;
62024;SDS011;47978;49.118;12.146;2023-07-02T08:00:14;14.77;;;6.75;;
62024;SDS011;47978;49.118;12.146;2023-07-02T08:04:18;16.65;;;7.07;;
62024;SDS011;47978;49.118;12.146;2023-07-02T08:08:19;16.73;;;7.30;;
62024;SDS011;47978;49.118;12.146;2023-07-02T08:12:21;21.15;;;8.70;;
62024;SDS011;47978;49.118;12.146;2023-07-02T08:16:22;21.80;;;7.80;;
62024;SDS011;47978;49.118;12.146;2023-07-02T08:20:25;21.00;;;8.38;;
62024;SDS011;47978;49.118;12.146;2023-07-02T08:28:29;22.23;;;8.98;;
62024;SDS011;47978;49.118;12.146;2023-07-02T08:32:30;12.77;;;6.15;;
62024;SDS011;47978;49.118;12.146;2023-07-02T08:36:33;17.55;;;7.75;;
62024;SDS011;47978;49.118;12.146;2023-07-02T08:40:35;17.05;;;7.80;;
62024;SDS011;47978;49.118;12.146;2023-07-02T08:44:37;17.08;;;7.53;;
62024;SDS011;47978;49.118;12.146;2023-07-02T08:48:38;18.77;;;7.57;;
62024;SDS011;47978;49.118;12.146;2023-07-02T08:52:42;14.73;;;8.10;;
62024;SDS011;47978;49.118;12.146;2023-07-02T08:56:44;14.07;;;7.03;;
62024;SDS011;47978;49.118;12.146;2023-07-02T09:05:06;13.23;;;7.03;;
62024;SDS011;47978;49.118;12.146;2023-07-02T09:09:10;17.95;;;7.20;;
62024;SDS011;47978;49.118;12.146;2023-07-02T09:17:13;14.98;;;7.00;;
62024;SDS011;47978;49.118;12.146;2023-07-02T09:21:14;10.98;;;6.82;;
62024;SDS011;47978;49.118;12.146;2023-07-02T09:25:17;14.52;;;7.18;;
62024;SDS011;47978;49.118;12.146;2023-07-02T09:29:21;14.00;;;6.97;;
62024;SDS011;47978;49.118;12.146;2023-07-02T09:33:23;9.57;;;5.38;;
62024;SDS011;47978;49.118;12.146;2023-07-02T09:37:26;11.20;;;7.57;;
62024;SDS011;47978;49.118;12.146;2023-07-02T09:41:29;12.90;;;6.17;;
62024;SDS011;47978;49.118;12.146;2023-07-02T09:45:31;10.02;;;5.40;;
62024;SDS011;47978;49.118;12.146;2023-07-02T09:49:33;16.05;;;7.22;;
62024;SDS011;47978;49.118;12.146;2023-07-02T09:53:36;18.90;;;10.88;;
62024;SDS011;47978;49.118;12.146;2023-07-02T09:57:39;9.38;;;3.60;;
62024;SDS011;47978;49.118;12.146;2023-07-02T10:01:44;13.20;;;7.45;;
62024;SDS011;47978;49.118;12.146;2023-07-02T10:05:45;11.13;;;5.82;;
62024;SDS011;47978;49.118;12.146;2023-07-02T10:09:47;19.67;;;7.40;;
62024;SDS011;47978;49.118;12.146;2023-07-02T10:13:58;13.50;;;5.88;;
62024;SDS011;47978;49.118;12.146;2023-07-02T10:18:01;12.82;;;5.97;;
62024;SDS011;47978;49.118;12.146;2023-07-02T10:22:04;12.88;;;6.65;;
62024;SDS011;47978;49.118;12.146;2023-07-02T10:26:13;16.47;;;7.50;;
62024;SDS011;47978;49.118;12.146;2023-07-02T10:30:17;8.50;;;4.60;;
62024;SDS011;47978;49.118;12.146;2023-07-02T10:34:29;13.43;;;6.32;;
62024;SDS011;47978;49.118;12.146;2023-07-02T10:38:31;16.23;;;7.57;;
62024;SDS011;47978;49.118;12.146;2023-07-02T10:42:33;12.20;;;7.00;;
62024;SDS011;47978;49.118;12.146;2023-07-02T10:46:42;12.10;;;6.97;;
62024;SDS011;47978;49.118;12.146;2023-07-02T10:50:44;10.02;;;5.85;;
62024;SDS011;47978;49.118;12.146;2023-07-02T10:54:46;11.82;;;6.88;;
62024;SDS011;47978;49.118;12.146;2023-07-02T10:58:48;10.98;;;5.57;;
62024;SDS011;47978;49.118;12.146;2023-07-02T11:02:51;9.68;;;5.70;;
62024;SDS011;47978;49.118;12.146;2023-07-02T11:06:53;13.77;;;7.85;;
62024;SDS011;47978;49.118;12.146;2023-07-02T11:11:03;13.77;;;6.50;;
62024;SDS011;47978;49.118;12.146;2023-07-02T11:15:09;13.10;;;6.22;;
62024;SDS011;47978;49.118;12.146;2023-07-02T11:19:12;15.27;;;4.85;;
62024;SDS011;47978;49.118;12.146;2023-07-02T11:23:17;8.95;;;5.60;;
62024;SDS011;47978;49.118;12.146;2023-07-02T11:27:20;9.07;;;3.90;;
62024;SDS011;47978;49.118;12.146;2023-07-02T11:31:25;13.35;;;6.97;;
62024;SDS011;47978;49.118;12.146;2023-07-02T11:35:34;9.63;;;7.03;;
62024;SDS011;47978;49.118;12.146;2023-07-02T11:39:36;11.55;;;6.53;;
62024;SDS011;47978;49.118;12.146;2023-07-02T11:43:37;8.75;;;5.40;;
62024;SDS011;47978;49.118;12.146;2023-07-02T11:47:39;10.93;;;6.47;;
62024;SDS011;47978;49.118;12.146;2023-07-02T11:51:42;11.43;;;6.53;;
62024;SDS011;47978;49.118;12.146;2023-07-02T11:55:44;9.82;;;6.10;;
62024;SDS011;47978;49.118;12.146;2023-07-02T11:59:46;11.37;;;6.93;;
62024;SDS011;47978;49.118;12.146;2023-07-02T12:03:48;12.57;;;6.25;;
62024;SDS011;47978;49.118;12.146;2023-07-02T12:07:51;10.50;;;6.38;;
62024;SDS011;47978;49.118;12.146;2023-07-02T12:11:53;10.85;;;4.97;;
62024;SDS011;47978;49.118;12.146;2023-07-02T12:15:54;8.82;;;6.28;;
62024;SDS011;47978;49.118;12.146;2023-07-02T12:19:56;9.30;;;4.93;;
62024;SDS011;47978;49.118;12.146;2023-07-02T12:23:59;12.68;;;5.43;;
62024;SDS011;47978;49.118;12.146;2023-07-02T12:28:01;7.63;;;4.57;;
62024;SDS011;47978;49.118;12.146;2023-07-02T12:32:04;13.23;;;7.38;;
62024;SDS011;47978;49.118;12.146;2023-07-02T12:36:06;11.32;;;6.70;;
62024;SDS011;47978;49.118;12.146;2023-07-02T12:40:10;11.98;;;6.43;;
62024;SDS011;47978;49.118;12.146;2023-07-02T12:44:12;10.93;;;6.05;;
62024;SDS011;47978;49.118;12.146;2023-07-02T12:48:13;8.07;;;4.63;;
62024;SDS011;47978;49.118;12.146;2023-07-02T12:52:15;8.68;;;5.50;;
62024;SDS011;47978;49.118;12.146;2023-07-02T12:56:18;10.75;;;6.40;;
62024;SDS011;47978;49.118;12.146;2023-07-02T13:00:20;10.57;;;5.53;;
62024;SDS011;47978;49.118;12.146;2023-07-02T13:04:21;10.80;;;6.70;;
62024;SDS011;47978;49.118;12.146;2023-07-02T13:08:23;12.20;;;6.40;;
62024;SDS011;47978;49.118;12.146;2023-07-02T13:12:26;14.02;;;7.68;;
62024;SDS011;47978;49.118;12.146;2023-07-02T13:16:28;14.88;;;7.72;;
62024;SDS011;47978;49.118;12.146;2023-07-02T13:20:29;18.98;;;7.57;;
62024;SDS011;47978;49.118;12.146;2023-07-02T13:24:34;11.52;;;6.93;;
62024;SDS011;47978;49.118;12.146;2023-07-02T13:28:37;15.23;;;8.00;;
62024;SDS011;47978;49.118;12.146;2023-07-02T13:32:38;12.20;;;6.70;;
62024;SDS011;47978;49.118;12.146;2023-07-02T13:36:40;12.98;;;6.65;;
62024;SDS011;47978;49.118;12.146;2023-07-02T13:40:42;9.40;;;4.65;;
62024;SDS011;47978;49.118;12.146;2023-07-02T13:44:45;11.73;;;6.22;;
62024;SDS011;47978;49.118;12.146;2023-07-02T13:48:46;10.43;;;5.93;;
62024;SDS011;47978;49.118;12.146;2023-07-02T13:52:48;12.38;;;6.93;;
62024;SDS011;47978;49.118;12.146;2023-07-02T13:56:50;14.73;;;6.72;;
62024;SDS011;47978;49.118;12.146;2023-07-02T14:00:53;11.18;;;7.00;;
62024;SDS011;47978;49.118;12.146;2023-07-02T14:04:54;14.40;;;7.03;;
62024;SDS011;47978;49.118;12.146;2023-07-02T14:08:58;12.65;;;6.90;;
62024;SDS011;47978;49.118;12.146;2023-07-02T14:13:00;11.65;;;6.32;;
62024;SDS011;47978;49.118;12.146;2023-07-02T14:17:03;11.25;;;6.38;;
62024;SDS011;47978;49.118;12.146;2023-07-02T14:21:04;11.00;;;6.50;;
62024;SDS011;47978;49.118;12.146;2023-07-02T14:25:06;11.10;;;7.07;;
62024;SDS011;47978;49.118;12.146;2023-07-02T14:29:08;11.30;;;6.32;;
62024;SDS011;47978;49.118;12.146;2023-07-02T14:33:12;12.45;;;6.60;;
62024;SDS011;47978;49.118;12.146;2023-07-02T14:37:13;11.68;;;6.45;;
62024;SDS011;47978;49.118;12.146;2023-07-02T14:41:15;11.40;;;6.65;;
62024;SDS011;47978;49.118;12.146;2023-07-02T14:45:16;11.57;;;8.07;;
62024;SDS011;47978;49.118;12.146;2023-07-02T14:49:19;11.80;;;6.85;;
62024;SDS011;47978;49.118;12.146;2023-07-02T14:53:21;14.32;;;6.78;;
62024;SDS011;47978;49.118;12.146;2023-07-02T14:57:23;12.30;;;6.70;;
62024;SDS011;47978;49.118;12.146;2023-07-02T15:01:25;13.20;;;7.85;;
62024;SDS011;47978;49.118;12.146;2023-07-02T15:05:27;10.85;;;7.18;;
62024;SDS011;47978;49.118;12.146;2023-07-02T15:09:29;10.45;;;7.28;;
62024;SDS011;47978;49.118;12.146;2023-07-02T15:13:31;17.17;;;7.05;;
62024;SDS011;47978;49.118;12.146;2023-07-02T15:17:32;12.35;;;7.30;;
62024;SDS011;47978;49.118;12.146;2023-07-02T15:21:36;11.98;;;7.95;;
62024;SDS011;47978;49.118;12.146;2023-07-02T15:25:38;12.68;;;7.63;;
62024;SDS011;47978;49.118;12.146;2023-07-02T15:29:40;14.23;;;8.85;;
62024;SDS011;47978;49.118;12.146;2023-07-02T15:33:41;12.82;;;8.10;;
62024;SDS011;47978;49.118;12.146;2023-07-02T15:37:44;13.93;;;8.15;;
62024;SDS011;47978;49.118;12.146;2023-07-02T15:41:46;12.38;;;7.15;;
62024;SDS011;47978;49.118;12.146;2023-07-02T15:45:47;12.65;;;7.82;;
62024;SDS011;47978;49.118;12.146;2023-07-02T15:49:53;12.35;;;7.82;;
62024;SDS011;47978;49.118;12.146;2023-07-02T15:53:55;12.70;;;7.95;;
62024;SDS011;47978;49.118;12.146;2023-07-02T15:57:57;12.05;;;8.45;;
62024;SDS011;47978;49.118;12.146;2023-07-02T16:01:59;13.20;;;8.15;;
62024;SDS011;47978;49.118;12.146;2023-07-02T16:06:01;13.68;;;7.72;;
62024;SDS011;47978;49.118;12.146;2023-07-02T16:10:09;16.17;;;8.82;;
62024;SDS011;47978;49.118;12.146;2023-07-02T16:14:12;13.13;;;6.80;;
62024;SDS011;47978;49.118;12.146;2023-07-02T16:18:15;12.25;;;6.75;;
62024;SDS011;47978;49.118;12.146;2023-07-02T16:22:17;13.02;;;7.50;;
62024;SDS011;47978;49.118;12.146;2023-07-02T16:26:20;11.57;;;7.53;;
62024;SDS011;47978;49.118;12.146;2023-07-02T16:30:22;12.35;;;7.07;;
62024;SDS011;47978;49.118;12.146;2023-07-02T16:34:24;12.87;;;7.47;;
62024;SDS011;47978;49.118;12.146;2023-07-02T16:38:26;12.68;;;8.05;;
62024;SDS011;47978;49.118;12.146;2023-07-02T16:42:29;15.27;;;8.97;;
62024;SDS011;47978;49.118;12.146;2023-07-02T16:46:31;12.52;;;8.07;;
62024;SDS011;47978;49.118;12.146;2023-07-02T16:50:33;12.40;;;7.75;;
62024;SDS011;47978;49.118;12.146;2023-07-02T16:54:34;12.45;;;7.03;;
62024;SDS011;47978;49.118;12.146;2023-07-02T16:58:37;14.57;;;8.52;;
62024;SDS011;47978;49.118;12.146;2023-07-02T17:02:39;11.80;;;7.43;;
62024;SDS011;47978;49.118;12.146;2023-07-02T17:06:41;19.65;;;8.45;;
62024;SDS011;47978;49.118;12.146;2023-07-02T17:10:44;16.63;;;8.88;;
62024;SDS011;47978;49.118;12.146;2023-07-02T17:14:47;11.98;;;7.82;;
62024;SDS011;47978;49.118;12.146;2023-07-02T17:18:50;16.08;;;8.85;;
62024;SDS011;47978;49.118;12.146;2023-07-02T17:22:51;15.00;;;8.02;;
62024;SDS011;47978;49.118;12.146;2023-07-02T17:26:53;13.55;;;8.05;;
62024;SDS011;47978;49.118;12.146;2023-07-02T17:30:58;12.52;;;7.63;;
62024;SDS011;47978;49.118;12.146;2023-07-02T17:35:00;13.52;;;8.13;;
62024;SDS011;47978;49.118;12.146;2023-07-02T17:39:01;13.13;;;8.60;;
62024;SDS011;47978;49.118;12.146;2023-07-02T17:43:03;15.00;;;8.80;;
62024;SDS011;47978;49.118;12.146;2023-07-02T17:47:07;13.18;;;8.35;;
62024;SDS011;47978;49.118;12.146;2023-07-02T17:51:09;15.55;;;8.23;;
62024;SDS011;47978;49.118;12.146;2023-07-02T17:55:11;10.95;;;7.63;;
62024;SDS011;47978;49.118;12.146;2023-07-02T17:59:13;14.93;;;8.73;;
62024;SDS011;47978;49.118;12.146;2023-07-02T18:03:16;11.18;;;7.20;;
62024;SDS011;47978;49.118;12.146;2023-07-02T18:07:18;13.75;;;8.93;;
62024;SDS011;47978;49.118;12.146;2023-07-02T18:11:20;16.30;;;8.32;;
62024;SDS011;47978;49.118;12.146;2023-07-02T18:15:22;13.52;;;8.65;;
62024;SDS011;47978;49.118;12.146;2023-07-02T18:19:25;18.17;;;8.73;;
62024;SDS011;47978;49.118;12.146;2023-07-02T18:23:26;13.65;;;8.50;;
62024;SDS011;47978;49.118;12.146;2023-07-02T18:27:28;13.02;;;9.27;;
62024;SDS011;47978;49.118;12.146;2023-07-02T18:31:30;15.05;;;8.50;;
62024;SDS011;47978;49.118;12.146;2023-07-02T18:35:33;14.05;;;8.82;;
62024;SDS011;47978;49.118;12.146;2023-07-02T18:39:35;13.43;;;8.40;;
62024;SDS011;47978;49.118;12.146;2023-07-02T18:43:37;13.80;;;8.00;;
62024;SDS011;47978;49.118;12.146;2023-07-02T18:47:39;13.88;;;9.07;;
62024;SDS011;47978;49.118;12.146;2023-07-02T18:51:42;14.60;;;8.63;;
62024;SDS011;47978;49.118;12.146;2023-07-02T18:55:53;14.43;;;8.65;;
62024;SDS011;47978;49.118;12.146;2023-07-02T18:59:55;13.63;;;7.97;;
62024;SDS011;47978;49.118;12.146;2023-07-02T19:03:56;13.70;;;8.55;;
62024;SDS011;47978;49.118;12.146;2023-07-02T19:07:59;17.13;;;8.50;;
62024;SDS011;47978;49.118;12.146;2023-07-02T19:12:01;16.95;;;8.73;;
62024;SDS011;47978;49.118;12.146;2023-07-02T19:16:03;12.57;;;7.93;;
62024;SDS011;47978;49.118;12.146;2023-07-02T19:20:05;13.60;;;8.70;;
62024;SDS011;47978;49.118;12.146;2023-07-02T19:24:09;14.82;;;8.93;;
62024;SDS011;47978;49.118;12.146;2023-07-02T19:32:11;17.67;;;10.00;;
62024;SDS011;47978;49.118;12.146;2023-07-02T19:36:13;15.70;;;8.70;;
62024;SDS011;47978;49.118;12.146;2023-07-02T19:40:16;19.25;;;9.77;;
62024;SDS011;47978;49.118;12.146;2023-07-02T19:44:18;16.63;;;9.27;;
62024;SDS011;47978;49.118;12.146;2023-07-02T19:48:19;16.27;;;9.38;;
62024;SDS011;47978;49.118;12.146;2023-07-02T19:52:21;15.32;;;8.55;;
62024;SDS011;47978;49.118;12.146;2023-07-02T19:56:25;17.13;;;9.27;;
62024;SDS011;47978;49.118;12.146;2023-07-02T20:00:27;20.80;;;9.40;;
62024;SDS011;47978;49.118;12.146;2023-07-02T20:04:29;17.25;;;8.90;;
62024;SDS011;47978;49.118;12.146;2023-07-02T20:08:31;15.93;;;8.73;;
62024;SDS011;47978;49.118;12.146;2023-07-02T20:12:34;15.98;;;8.85;;
62024;SDS011;47978;49.118;12.146;2023-07-02T20:20:37;19.33;;;11.20;;
62024;SDS011;47978;49.118;12.146;2023-07-02T20:24:38;18.75;;;9.90;;
62024;SDS011;47978;49.118;12.146;2023-07-02T20:28:41;15.85;;;9.65;;
62024;SDS011;47978;49.118;12.146;2023-07-02T20:32:43;20.35;;;10.05;;
62024;SDS011;47978;49.118;12.146;2023-07-02T20:36:45;17.50;;;10.18;;
62024;SDS011;47978;49.118;12.146;2023-07-02T20:40:54;17.65;;;9.90;;
62024;SDS011;47978;49.118;12.146;2023-07-02T20:44:58;17.55;;;10.18;;
62024;SDS011;47978;49.118;12.146;2023-07-02T20:48:59;21.30;;;10.32;;
62024;SDS011;47978;49.118;12.146;2023-07-02T20:53:01;18.90;;;10.07;;
62024;SDS011;47978;49.118;12.146;2023-07-02T20:57:02;18.58;;;10.43;;
62024;SDS011;47978;49.118;12.146;2023-07-02T21:01:06;21.50;;;10.35;;
62024;SDS011;47978;49.118;12.146;2023-07-02T21:05:11;17.80;;;9.88;;
62024;SDS011;47978;49.118;12.146;2023-07-02T21:09:13;22.40;;;10.40;;
62024;SDS011;47978;49.118;12.146;2023-07-02T21:13:14;25.15;;;11.82;;
62024;SDS011;47978;49.118;12.146;2023-07-02T21:17:17;21.05;;;10.82;;
62024;SDS011;47978;49.118;12.146;2023-07-02T21:21:19;19.90;;;10.00;;
62024;SDS011;47978;49.118;12.146;2023-07-02T21:25:21;20.83;;;10.75;;
62024;SDS011;47978;49.118;12.146;2023-07-02T21:29:22;19.42;;;10.13;;
62024;SDS011;47978;49.118;12.146;2023-07-02T21:33:25;21.42;;;10.85;;
62024;SDS011;47978;49.118;12.146;2023-07-02T21:37:27;20.83;;;11.02;;
62024;SDS011;47978;49.118;12.146;2023-07-02T21:41:28;23.02;;;10.63;;
62024;SDS011;47978;49.118;12.146;2023-07-02T21:45:30;23.45;;;11.52;;
62024;SDS011;47978;49.118;12.146;2023-07-02T21:49:33;24.73;;;11.35;;
62024;SDS011;47978;49.118;12.146;2023-07-02T21:53:34;21.40;;;11.88;;
62024;SDS011;47978;49.118;12.146;2023-07-02T21:57:36;19.30;;;10.70;;
62024;SDS011;47978;49.118;12.146;2023-07-02T22:01:37;26.23;;;12.05;;
62024;SDS011;47978;49.118;12.146;2023-07-02T22:05:41;22.90;;;11.48;;
62024;SDS011;47978;49.118;12.146;2023-07-02T22:09:43;20.60;;;11.27;;
62024;SDS011;47978;49.118;12.146;2023-07-02T22:13:44;21.77;;;11.35;;
62024;SDS011;47978;49.118;12.146;2023-07-02T22:17:46;21.70;;;11.77;;
62024;SDS011;47978;49.118;12.146;2023-07-02T22:21:49;28.92;;;12.75;;
62024;SDS011;47978;49.118;12.146;2023-07-02T22:25:50;35.28;;;11.50;;
62024;SDS011;47978;49.118;12.146;2023-07-02T22:29:52;23.05;;;11.90;;
62024;SDS011;47978;49.118;12.146;2023-07-02T22:33:54;23.60;;;11.65;;
62024;SDS011;47978;49.118;12.146;2023-07-02T22:37:57;23.25;;;11.40;;
62024;SDS011;47978;49.118;12.146;2023-07-02T22:41:59;22.25;;;11.10;;
62024;SDS011;47978;49.118;12.146;2023-07-02T22:46:00;25.27;;;12.10;;
62024;SDS011;47978;49.118;12.146;2023-07-02T22:50:02;22.70;;;11.70;;
62024;SDS011;47978;49.118;12.146;2023-07-02T22:54:06;21.58;;;11.65;;
62024;SDS011;47978;49.118;12.146;2023-07-02T22:58:07;24.60;;;11.68;;
62024;SDS011;47978;49.118;12.146;2023-07-02T23:02:09;22.85;;;12.20;;
62024;SDS011;47978;49.118;12.146;2023-07-02T23:06:10;30.17;;;12.48;;
62024;SDS011;47978;49.118;12.146;2023-07-02T23:10:14;23.35;;;11.98;;
62024;SDS011;47978;49.118;12.146;2023-07-02T23:14:16;23.23;;;11.95;;
62024;SDS011;47978;49.118;12.146;2023-07-02T23:18:18;22.95;;;11.60;;
62024;SDS011;47978;49.118;12.146;2023-07-02T23:22:20;24.38;;;12.05;;
62024;SDS011;47978;49.118;12.146;2023-07-02T23:26:23;21.42;;;11.70;;
62024;SDS011;47978;49.118;12.146;2023-07-02T23:30:24;27.33;;;13.13;;
62024;SDS011;47978;49.118;12.146;2023-07-02T23:34:26;26.17;;;12.27;;
62024;SDS011;47978;49.118;12.146;2023-07-02T23:38:27;24.98;;;12.20;;
62024;SDS011;47978;49.118;12.146;2023-07-02T23:42:30;27.35;;;12.82;;
62024;SDS011;47978;49.118;12.146;2023-07-02T23:46:32;28.15;;;12.32;;
62024;SDS011;47978;49.118;12.146;2023-07-02T23:50:34;29.67;;;12.55;;
62024;SDS011;47978;49.118;12.146;2023-07-02T23:54:35;25.65;;;12.27;;
62024;SDS011;47978;49.118;12.146;2023-07-02T23:58:38;27.55;;;12.18;;
